Ana Sayfa
METAR-TAF:

METAR-TAF

Havaalanları :

Rodos Diagoras Uluslararası Havalimanı

Rodos, Yunanistan

Enlem: 36-24N, Boylam: 028-05E, yükseklik: 4 m

Güncel hava durumu gözlemi

Rapor saat 11:50 UTC de 53 dakika önce yapıldı.
Rüzgar doğudan 7 kt, doğu/kuzeydoğu ve güneydoğu arasında değişken
Sıcaklık 24°C
Nem 31%
Basınç 1025 hPa
Görüş mesafesi 10 km veya daha fazla
1500 m altında bulut yok ve kümülonimbus yok

METAR: LGRP 241150Z 09007KT 060V130 CAVOK 24/06 Q1025 NOSIG

Saat: 15:43 (12:43 UTC)

Tahmin

Rapor saat 11:00 UTC de 1 saat ve 43 dakika önce yapıldı.
Ayın 24'si saat 12 UTC'den ayın 25'si saat 12 UTC'ye kadar geçerli Tahmin
Rüzgar doğu/güneydoğudan 10 kt
Görüş mesafesi 10 km veya daha fazla
2000 ft yükseklikte az bulutlu
Dönüşüyor
ayın 24'si saat 22 UTC'den ayın 24'si saat 24 UTC'ye kadar
Rüzgar batı/güneybatıdan 10 kt

TAF: LGRP 241100Z 2412/2512 11010KT 9999 FEW020 BECMG 2422/2424 24010KT

4.000'den fazla havaalanı için hava durumu gözlemleri ve tahminleri (METAR ve TAF raporları).

Kullanılabilir istasyonlar harita üzerinde sarı ve kırmızı noktalarla gösterilir.

İstasyonun adını görmek için fareyi noktanın üzerinde gezdirin.

Sonrasında hava gözlem ve tahminlerini görmek için tıklayın.

Haritayı değiştirmek için: yaklaştırmak için siyah artı işaretli yeşil düğmeye ve uzaklaştırmak için de eksi işaretli düğmeye hızla tıklayın; bitişik haritalar için yeşil okları kullanın.


METAR-TAF: